Time;durP1;ratioP1;P1;durP2;ratioP2;P2;SDS_P1;SDS_P2;PMS_P1;PMS_P2;Temp;Humidity;BMP_temperature;BMP_pressure;BME280_temperature;BME280_humidity;BME280_pressure;Samples;Min_cycle;Max_cycle;Signal;HPM_P1;HPM_P2
2022/06/01 00:01:18;;;;;;;1.20;0.43;;;8.60;99.90;;;;;;5011069;28;20029;-55
2022/06/01 00:03:44;;;;;;;0.50;0.40;;;8.50;99.90;;;;;;5013915;28;20462;-54
2022/06/01 00:06:11;;;;;;;2.50;0.80;;;8.50;99.90;;;;;;5009320;28;20394;-55
2022/06/01 00:08:38;;;;;;;2.47;0.98;;;8.50;99.90;;;;;;5011009;28;20516;-57
2022/06/01 00:11:04;;;;;;;1.02;0.88;;;8.50;99.90;;;;;;5010302;28;20033;-57
2022/06/01 00:13:30;;;;;;;1.80;0.70;;;8.50;99.90;;;;;;5008784;28;20130;-53
2022/06/01 00:15:57;;;;;;;1.67;0.70;;;8.40;99.90;;;;;;5017947;28;20117;-54
2022/06/01 00:18:23;;;;;;;0.77;0.60;;;8.40;99.90;;;;;;5010082;28;20389;-55
2022/06/01 00:20:50;;;;;;;1.77;0.90;;;8.40;99.90;;;;;;5017994;28;20064;-56
2022/06/01 00:23:17;;;;;;;2.75;0.90;;;8.20;99.90;;;;;;5042496;28;20051;-54
2022/06/01 00:25:43;;;;;;;2.72;0.90;;;8.30;99.90;;;;;;5014804;28;20393;-51
2022/06/01 00:28:09;;;;;;;1.30;0.80;;;8.20;99.90;;;;;;5008725;28;20492;-55
2022/06/01 00:30:35;;;;;;;2.05;1.45;;;8.20;99.90;;;;;;5009118;28;20033;-55
2022/06/01 00:33:02;;;;;;;0.60;0.52;;;8.20;99.90;;;;;;5010407;28;20042;-56
2022/06/01 00:35:27;;;;;;;2.58;0.80;;;8.20;99.90;;;;;;5008627;28;20862;-55
2022/06/01 00:37:53;;;;;;;2.13;1.60;;;8.20;99.90;;;;;;5011802;28;20034;-54
2022/06/01 00:40:21;;;;;;;0.77;0.70;;;8.10;99.90;;;;;;5009938;28;20532;-55
2022/06/01 00:42:50;;;;;;;1.60;0.93;;;8.10;99.90;;;;;;5019558;28;20033;-55
2022/06/01 00:45:20;;;;;;;0.80;0.70;;;8.10;99.90;;;;;;5016320;28;20036;-56
2022/06/01 00:47:46;;;;;;;3.83;0.60;;;8.10;99.90;;;;;;5010743;28;20429;-55
2022/06/01 00:50:26;;;;;;;1.95;0.95;;;7.90;99.90;;;;;;5010485;28;20028;-55
2022/06/01 00:53:05;;;;;;;2.13;1.50;;;7.70;99.90;;;;;;5021398;28;20113;-54
2022/06/01 00:55:34;;;;;;;6.53;1.25;;;7.80;99.90;;;;;;5007787;28;20038;-56
2022/06/01 00:58:10;;;;;;;2.08;1.10;;;7.70;99.90;;;;;;5009905;28;20026;-55
2022/06/01 01:00:39;;;;;;;1.58;1.05;;;7.80;99.90;;;;;;5014858;28;20112;-53
2022/06/01 01:03:07;;;;;;;1.33;1.00;;;7.80;99.90;;;;;;5023618;28;20040;-55
2022/06/01 01:05:33;;;;;;;0.80;0.80;;;7.80;99.90;;;;;;5010100;28;20474;-55
2022/06/01 01:08:04;;;;;;;3.22;1.08;;;7.80;99.90;;;;;;5010475;28;20475;-56
2022/06/01 01:10:30;;;;;;;2.67;0.90;;;7.80;99.90;;;;;;5012278;28;20037;-56
2022/06/01 01:12:58;;;;;;;2.25;1.02;;;7.80;99.90;;;;;;5009623;28;20362;-55
2022/06/01 01:15:52;;;;;;;1.38;1.10;;;7.70;99.90;;;;;;5014362;28;20397;-56
2022/06/01 01:18:21;;;;;;;2.28;1.10;;;7.80;99.90;;;;;;5012569;28;20029;-56
2022/06/01 01:20:58;;;;;;;2.92;0.95;;;7.70;99.90;;;;;;5010439;28;20034;-56
2022/06/01 01:23:33;;;;;;;4.30;1.23;;;7.60;99.90;;;;;;5004899;28;20026;-56
2022/06/01 01:25:59;;;;;;;2.30;1.00;;;7.50;99.90;;;;;;5022940;28;20083;-56
2022/06/01 01:28:25;;;;;;;1.23;1.13;;;7.60;99.90;;;;;;5014859;28;20545;-56
2022/06/01 01:31:01;;;;;;;2.35;1.15;;;7.60;99.90;;;;;;5011834;28;20022;-55
2022/06/01 01:33:29;;;;;;;1.58;0.98;;;7.60;99.90;;;;;;5004337;28;20120;-55
2022/06/01 01:36:02;;;;;;;1.95;0.85;;;7.60;99.90;;;;;;5009396;28;20049;-56
2022/06/01 01:38:59;;;;;;;1.35;0.90;;;7.60;99.90;;;;;;5011020;28;20132;-57
2022/06/01 01:41:46;;;;;;;1.65;1.40;;;7.60;99.90;;;;;;5004582;28;20077;-56
2022/06/01 01:44:35;;;;;;;2.13;1.02;;;7.50;99.90;;;;;;5007117;28;20038;-54
2022/06/01 01:47:01;;;;;;;1.02;0.93;;;7.40;99.90;;;;;;5012939;28;20026;-53
2022/06/01 01:49:33;;;;;;;1.60;1.00;;;7.40;99.90;;;;;;5017854;28;20147;-56
2022/06/01 01:52:02;;;;;;;1.77;1.40;;;7.40;99.90;;;;;;5011621;28;20030;-56
2022/06/01 01:54:52;;;;;;;6.28;1.25;;;7.30;99.90;;;;;;5010128;28;20116;-55
2022/06/01 01:57:30;;;;;;;1.23;1.00;;;7.30;99.90;;;;;;5008548;28;20042;-56
2022/06/01 02:00:17;;;;;;;2.38;0.82;;;7.40;99.90;;;;;;5010763;28;20026;-56
2022/06/01 02:03:22;;;;;;;1.30;1.20;;;7.30;99.90;;;;;;5016839;28;20040;-56
2022/06/01 02:06:11;;;;;;;4.07;0.90;;;7.30;99.90;;;;;;5007610;28;20034;-56
2022/06/01 02:08:58;;;;;;;15.95;1.40;;;7.40;99.90;;;;;;5009088;28;20502;-54
2022/06/01 02:14:38;;;;;;;1.80;1.17;;;7.20;99.90;;;;;;5006708;28;20516;-57
2022/06/01 02:17:13;;;;;;;2.05;1.23;;;7.20;99.90;;;;;;5011961;28;20042;-58
2022/06/01 02:19:59;;;;;;;3.47;1.58;;;7.10;99.90;;;;;;5022209;28;20035;-56
2022/06/01 02:22:25;;;;;;;1.98;1.70;;;7.00;99.90;;;;;;5011135;28;20057;-55
2022/06/01 02:24:51;;;;;;;2.30;1.98;;;6.90;99.90;;;;;;5021524;28;20037;-56
2022/06/01 02:27:19;;;;;;;3.47;1.90;;;6.80;99.90;;;;;;5016061;28;20064;-56
2022/06/01 02:29:50;;;;;;;2.58;2.00;;;6.80;99.90;;;;;;5014781;28;20052;-58
2022/06/01 02:32:18;;;;;;;2.80;2.00;;;6.70;99.90;;;;;;5016735;28;20050;-55
2022/06/01 02:34:46;;;;;;;2.40;1.70;;;6.70;99.90;;;;;;5012378;28;20037;-57
2022/06/01 02:37:14;;;;;;;2.42;1.73;;;6.60;99.90;;;;;;5010948;28;20034;-55
2022/06/01 02:39:43;;;;;;;3.28;1.77;;;6.60;99.90;;;;;;5014431;28;20029;-55
2022/06/01 02:42:26;;;;;;;2.13;1.50;;;6.50;99.90;;;;;;5012373;28;20034;-56
2022/06/01 02:44:58;;;;;;;3.58;1.83;;;6.50;99.90;;;;;;5015774;28;20466;-56
2022/06/01 02:47:26;;;;;;;2.42;1.70;;;6.40;99.90;;;;;;5012532;28;20117;-57
2022/06/01 02:49:52;;;;;;;1.90;1.70;;;6.30;99.90;;;;;;5014840;28;20021;-55
2022/06/01 02:52:18;;;;;;;4.78;2.10;;;6.30;99.90;;;;;;5012219;28;20030;-54
2022/06/01 02:54:44;;;;;;;2.80;2.00;;;6.20;99.90;;;;;;5012299;28;20026;-53
2022/06/01 02:57:10;;;;;;;3.55;1.70;;;6.20;99.90;;;;;;5008136;28;20039;-56
2022/06/01 02:59:36;;;;;;;4.68;1.90;;;6.20;99.90;;;;;;5005842;28;20025;-55
2022/06/01 03:02:03;;;;;;;1.92;1.50;;;6.20;99.90;;;;;;5011902;28;20466;-56
2022/06/01 03:04:29;;;;;;;2.38;1.60;;;6.10;99.90;;;;;;5004020;28;20106;-56
2022/06/01 03:06:55;;;;;;;1.95;1.50;;;6.10;99.90;;;;;;5006303;28;20074;-57
2022/06/01 03:09:22;;;;;;;2.20;1.35;;;6.10;99.90;;;;;;5011654;28;20025;-55
2022/06/01 03:11:47;;;;;;;1.42;1.25;;;6.20;99.90;;;;;;5015240;28;20078;-56
2022/06/01 03:14:13;;;;;;;1.58;1.48;;;6.20;99.90;;;;;;5011077;28;20030;-55
2022/06/01 03:16:39;;;;;;;1.40;1.30;;;6.20;99.90;;;;;;5017670;28;20041;-55
2022/06/01 03:19:06;;;;;;;1.73;1.35;;;6.20;99.90;;;;;;5019371;28;20022;-55
2022/06/01 03:21:32;;;;;;;1.90;1.50;;;6.20;99.90;;;;;;5014418;28;20026;-54
2022/06/01 03:23:58;;;;;;;1.33;1.13;;;6.20;99.90;;;;;;5011834;28;20078;-55
2022/06/01 03:26:24;;;;;;;1.90;1.52;;;6.10;99.90;;;;;;5005669;28;20038;-54
2022/06/01 03:28:50;;;;;;;1.90;1.38;;;6.10;99.90;;;;;;5010620;28;20442;-56
2022/06/01 03:31:16;;;;;;;1.88;1.30;;;6.10;99.90;;;;;;5003946;28;20038;-55
2022/06/01 03:33:42;;;;;;;1.88;1.67;;;6.10;99.90;;;;;;5013746;28;20034;-54
2022/06/01 03:36:09;;;;;;;1.95;1.42;;;6.10;99.90;;;;;;5017578;28;20042;-54
2022/06/01 03:38:35;;;;;;;1.60;1.42;;;6.10;99.90;;;;;;5010827;28;20060;-55
2022/06/01 03:41:01;;;;;;;1.48;1.38;;;6.10;99.90;;;;;;5016115;28;20046;-56
2022/06/01 03:43:26;;;;;;;3.65;1.52;;;6.00;99.90;;;;;;5009579;28;20108;-56
2022/06/01 03:45:55;;;;;;;2.00;1.40;;;6.00;99.90;;;;;;5015444;28;20030;-55
2022/06/01 03:48:22;;;;;;;2.40;1.23;;;6.00;99.90;;;;;;5013957;28;20108;-54
2022/06/01 03:50:48;;;;;;;1.40;1.17;;;6.00;99.90;;;;;;5012101;28;20032;-54
2022/06/01 03:53:14;;;;;;;1.80;1.33;;;6.00;99.90;;;;;;5010015;28;20101;-55
2022/06/01 03:55:42;;;;;;;1.42;1.30;;;6.00;99.90;;;;;;5013551;28;20133;-54
2022/06/01 03:58:12;;;;;;;2.90;1.45;;;6.00;99.90;;;;;;5014622;28;20026;-55
2022/06/01 04:00:38;;;;;;;1.98;1.45;;;6.00;99.90;;;;;;5006880;28;20053;-55
2022/06/01 04:03:04;;;;;;;1.58;1.48;;;6.10;99.90;;;;;;5011205;28;20065;-55
2022/06/01 04:05:30;;;;;;;1.40;1.13;;;6.20;99.90;;;;;;5007621;28;20026;-55
2022/06/01 04:07:55;;;;;;;1.30;1.15;;;6.40;99.90;;;;;;5011508;28;20030;-55
2022/06/01 04:10:21;;;;;;;5.97;1.73;;;6.40;99.90;;;;;;5009673;28;20022;-54
2022/06/01 04:12:47;;;;;;;1.92;1.30;;;6.50;99.90;;;;;;5010145;28;20545;-54
2022/06/01 04:15:13;;;;;;;6.75;1.63;;;6.60;99.90;;;;;;5014135;28;20034;-57
2022/06/01 04:17:39;;;;;;;2.65;1.00;;;6.50;99.90;;;;;;5009697;28;20060;-55
2022/06/01 04:20:07;;;;;;;2.80;1.30;;;6.40;99.90;;;;;;5004738;28;20118;-57
2022/06/01 04:22:34;;;;;;;2.22;1.20;;;6.40;99.90;;;;;;5016294;28;20047;-55
2022/06/01 04:25:00;;;;;;;5.15;1.90;;;6.40;99.90;;;;;;5016306;28;20390;-53
2022/06/01 04:27:31;;;;;;;5.03;1.35;;;6.30;99.90;;;;;;5011099;28;20026;-55
2022/06/01 04:29:57;;;;;;;1.20;0.95;;;6.40;99.90;;;;;;5014836;28;20121;-55
2022/06/01 04:32:28;;;;;;;3.05;1.23;;;6.40;99.90;;;;;;5015830;28;20129;-55
2022/06/01 04:34:54;;;;;;;4.72;1.33;;;6.30;99.90;;;;;;5014547;28;20029;-56
2022/06/01 04:37:20;;;;;;;1.85;1.42;;;6.30;99.90;;;;;;5012596;28;20044;-55
2022/06/01 04:39:46;;;;;;;1.65;1.27;;;6.30;99.90;;;;;;5012790;28;20018;-55
2022/06/01 04:42:11;;;;;;;2.45;1.80;;;6.40;99.90;;;;;;5007855;28;20474;-56
2022/06/01 04:44:37;;;;;;;1.77;1.02;;;6.40;99.90;;;;;;5010277;28;20386;-55
2022/06/01 04:47:04;;;;;;;2.45;1.35;;;6.30;99.90;;;;;;5011707;28;20026;-54
2022/06/01 04:49:30;;;;;;;2.13;1.30;;;6.30;99.90;;;;;;5008392;28;20441;-55
2022/06/01 04:51:56;;;;;;;3.70;1.55;;;6.40;99.90;;;;;;5012503;28;20037;-54
2022/06/01 04:54:21;;;;;;;1.95;1.48;;;6.40;99.90;;;;;;5008588;28;20409;-54
2022/06/01 04:56:47;;;;;;;3.33;1.40;;;6.50;99.90;;;;;;5010021;28;20046;-54
2022/06/01 04:59:16;;;;;;;2.72;1.42;;;6.50;99.90;;;;;;5008622;28;20033;-54
2022/06/01 05:01:43;;;;;;;1.50;1.30;;;6.60;99.90;;;;;;5009743;28;20129;-54
2022/06/01 05:04:09;;;;;;;2.72;1.30;;;6.70;99.90;;;;;;5006567;28;20087;-56
2022/06/01 05:06:35;;;;;;;1.92;1.25;;;6.80;99.90;;;;;;5003059;28;20406;-56
2022/06/01 05:09:00;;;;;;;4.72;1.67;;;6.90;99.90;;;;;;5014261;28;20033;-54
2022/06/01 05:11:26;;;;;;;2.75;1.60;;;7.10;99.90;;;;;;5010813;28;20639;-54
2022/06/01 05:13:52;;;;;;;1.73;1.30;;;7.30;99.90;;;;;;5009720;28;20034;-56
2022/06/01 05:16:18;;;;;;;3.33;1.48;;;7.40;99.90;;;;;;5009139;28;20042;-56
2022/06/01 05:18:44;;;;;;;7.18;2.10;;;7.50;99.90;;;;;;5016124;28;20080;-55
2022/06/01 05:21:09;;;;;;;9.85;3.55;;;7.60;99.90;;;;;;5006949;28;20382;-56
2022/06/01 05:23:35;;;;;;;11.70;2.45;;;7.70;99.90;;;;;;5007739;28;20025;-55
2022/06/01 05:26:01;;;;;;;4.03;1.70;;;7.70;99.90;;;;;;5010443;28;20037;-55
2022/06/01 05:28:29;;;;;;;2.88;2.30;;;7.70;99.90;;;;;;5008639;28;20116;-56
2022/06/01 05:31:00;;;;;;;4.30;1.85;;;7.70;99.90;;;;;;5012805;28;20045;-55
2022/06/01 05:33:26;;;;;;;3.45;1.70;;;7.80;99.90;;;;;;5012847;28;20366;-57
2022/06/01 05:35:52;;;;;;;4.35;1.60;;;8.10;99.90;;;;;;5010238;28;20482;-56
2022/06/01 05:38:18;;;;;;;6.90;1.95;;;8.20;99.90;;;;;;5010685;28;20034;-57
2022/06/01 05:40:43;;;;;;;6.50;1.70;;;8.20;99.90;;;;;;5010483;28;20030;-55
2022/06/01 05:43:11;;;;;;;4.78;1.73;;;8.30;99.90;;;;;;5013822;28;20526;-56
2022/06/01 05:45:38;;;;;;;4.30;2.03;;;8.20;99.90;;;;;;5003018;28;20469;-56
2022/06/01 05:48:06;;;;;;;5.65;2.10;;;8.40;99.90;;;;;;5012409;28;20026;-56
2022/06/01 05:50:32;;;;;;;5.57;2.17;;;8.40;99.90;;;;;;5015657;28;20449;-57
2022/06/01 05:52:57;;;;;;;3.10;1.70;;;8.40;99.90;;;;;;5006824;28;20034;-56
2022/06/01 05:55:23;;;;;;;5.10;1.50;;;8.50;99.90;;;;;;5023418;28;20145;-57
2022/06/01 05:57:49;;;;;;;3.65;1.63;;;8.60;99.90;;;;;;5019766;28;20026;-55
2022/06/01 06:00:16;;;;;;;3.60;1.42;;;8.70;99.90;;;;;;5017822;28;20389;-55
2022/06/01 06:02:42;;;;;;;5.88;2.35;;;8.90;99.90;;;;;;5016437;28;20029;-55
2022/06/01 06:07:59;;;;;;;5.72;1.58;;;9.10;99.90;;;;;;5009005;28;20065;-57
2022/06/01 06:10:26;;;;;;;3.05;1.40;;;9.20;99.90;;;;;;5009495;28;20124;-57
2022/06/01 06:12:53;;;;;;;4.45;1.50;;;9.40;99.90;;;;;;5017498;28;20559;-55
2022/06/01 06:15:19;;;;;;;3.72;1.40;;;9.50;99.90;;;;;;5015524;28;20030;-54
2022/06/01 06:17:45;;;;;;;4.10;1.90;;;9.60;99.90;;;;;;5018089;28;20057;-54
2022/06/01 06:20:12;;;;;;;9.82;1.95;;;9.60;99.90;;;;;;5014614;28;20029;-54
2022/06/01 06:22:38;;;;;;;2.38;1.42;;;9.60;99.90;;;;;;5011444;28;20033;-55
2022/06/01 06:25:04;;;;;;;3.25;1.58;;;9.60;99.90;;;;;;5021109;28;20087;-57
2022/06/01 06:27:30;;;;;;;3.50;2.00;;;9.70;99.90;;;;;;5010214;28;20124;-57
2022/06/01 06:29:56;;;;;;;5.78;2.10;;;9.70;99.90;;;;;;5014021;28;20148;-57
2022/06/01 06:32:22;;;;;;;1.98;1.55;;;9.80;99.90;;;;;;5015275;28;20107;-56
2022/06/01 06:34:48;;;;;;;6.75;2.70;;;9.90;99.90;;;;;;5012334;28;20445;-56
2022/06/01 06:37:13;;;;;;;3.50;1.75;;;10.00;99.90;;;;;;5010918;28;20034;-56
2022/06/01 06:39:39;;;;;;;3.97;1.63;;;10.10;99.90;;;;;;5015849;28;20371;-58
2022/06/01 06:42:05;;;;;;;8.05;2.55;;;10.20;99.90;;;;;;5020850;28;20104;-56
2022/06/01 06:44:33;;;;;;;2.33;1.88;;;10.30;99.90;;;;;;5011209;28;20033;-62
2022/06/01 06:46:59;;;;;;;4.45;1.80;;;10.30;99.90;;;;;;5021470;28;20420;-57
2022/06/01 06:49:25;;;;;;;6.97;1.60;;;10.40;99.90;;;;;;5012397;28;20032;-56
2022/06/01 06:51:51;;;;;;;3.92;1.50;;;10.50;99.90;;;;;;5017242;28;20026;-58
2022/06/01 06:54:18;;;;;;;4.00;1.98;;;10.50;99.90;;;;;;5012049;28;20030;-56
2022/06/01 06:56:44;;;;;;;2.40;1.67;;;10.50;99.90;;;;;;5011681;28;20045;-58
2022/06/01 06:59:12;;;;;;;3.72;1.60;;;10.60;99.90;;;;;;5010406;28;20481;-57
2022/06/01 07:01:38;;;;;;;3.00;1.70;;;10.60;99.90;;;;;;5010876;28;20038;-57
2022/06/01 07:04:04;;;;;;;5.93;2.60;;;10.60;99.90;;;;;;5005251;28;20027;-56
2022/06/01 07:06:30;;;;;;;4.40;1.50;;;10.60;99.90;;;;;;4995703;28;20058;-58
2022/06/01 07:08:57;;;;;;;4.43;1.80;;;10.80;99.90;;;;;;5013362;28;20068;-58
2022/06/01 07:11:26;;;;;;;3.25;1.75;;;10.80;99.90;;;;;;5016045;28;20122;-58
2022/06/01 07:13:51;;;;;;;3.00;1.45;;;10.90;99.90;;;;;;5015478;28;20076;-57
2022/06/01 07:16:32;;;;;;;9.23;2.20;;;11.00;99.90;;;;;;5012018;28;20467;-56
2022/06/01 07:19:00;;;;;;;3.78;1.58;;;11.10;99.90;;;;;;5011520;28;20025;-57
2022/06/01 07:21:27;;;;;;;4.03;1.40;;;11.20;99.90;;;;;;5014476;28;20088;-56
2022/06/01 07:23:52;;;;;;;4.22;1.63;;;11.40;99.90;;;;;;5016277;28;20485;-57
2022/06/01 07:26:26;;;;;;;1.98;1.50;;;11.50;99.90;;;;;;5008055;28;20121;-58
2022/06/01 07:28:52;;;;;;;6.55;1.55;;;11.50;99.90;;;;;;5007820;28;20084;-57
2022/06/01 07:31:19;;;;;;;5.30;1.58;;;11.40;99.90;;;;;;5010082;28;20041;-57
2022/06/01 07:33:46;;;;;;;4.00;1.42;;;11.50;99.90;;;;;;5020402;28;20026;-58
2022/06/01 07:36:15;;;;;;;6.47;1.98;;;11.60;99.90;;;;;;5016527;28;20042;-58
2022/06/01 07:44:35;;;;;;;6.72;1.65;;;11.70;99.90;;;;;;5013433;28;20100;-58
2022/06/01 07:47:01;;;;;;;2.53;1.55;;;11.70;99.90;;;;;;5012335;28;20065;-57
2022/06/01 07:49:27;;;;;;;9.52;4.38;;;11.80;99.90;;;;;;5012218;28;20033;-58
2022/06/01 07:51:56;;;;;;;10.68;1.98;;;11.80;99.90;;;;;;5014864;28;20487;-57
2022/06/01 07:54:22;;;;;;;4.90;1.80;;;12.00;99.90;;;;;;5020272;28;20121;-57
2022/06/01 07:56:48;;;;;;;6.40;1.90;;;12.00;99.90;;;;;;5017650;28;20170;-57
2022/06/01 07:59:15;;;;;;;3.60;1.20;;;12.10;99.90;;;;;;5017438;28;20116;-57
2022/06/01 08:01:41;;;;;;;5.38;1.42;;;12.20;99.90;;;;;;5017158;28;20030;-57
2022/06/01 08:04:08;;;;;;;2.25;0.85;;;12.40;99.90;;;;;;5029046;28;20044;-60
2022/06/01 08:06:35;;;;;;;3.78;1.30;;;12.50;99.90;;;;;;5017358;28;20057;-56
2022/06/01 08:09:02;;;;;;;5.28;1.60;;;12.50;99.90;;;;;;5007342;28;20033;-57
2022/06/01 08:14:14;;;;;;;2.33;1.23;;;12.80;99.90;;;;;;5009888;28;20390;-58
2022/06/01 08:16:41;;;;;;;5.60;1.15;;;12.80;99.80;;;;;;5016470;28;20491;-58
2022/06/01 08:19:08;;;;;;;7.05;1.85;;;13.00;99.20;;;;;;5022637;28;20026;-58
2022/06/01 08:21:35;;;;;;;4.47;1.30;;;13.00;99.10;;;;;;5015070;28;20030;-58
2022/06/01 08:24:02;;;;;;;5.32;1.60;;;13.10;99.00;;;;;;5014631;28;20022;-58
2022/06/01 08:26:28;;;;;;;3.72;1.30;;;13.20;99.50;;;;;;5007228;28;20117;-58
2022/06/01 08:28:54;;;;;;;3.42;1.20;;;13.30;98.30;;;;;;5015997;28;20076;-58
2022/06/01 08:31:20;;;;;;;6.70;1.33;;;13.40;98.70;;;;;;5011385;28;20563;-58
2022/06/01 08:33:45;;;;;;;4.25;1.50;;;13.50;98.80;;;;;;5011186;28;20038;-58
2022/06/01 08:36:11;;;;;;;7.72;1.70;;;13.70;99.70;;;;;;5007112;28;20037;-57
2022/06/01 08:38:37;;;;;;;4.20;1.50;;;14.00;97.80;;;;;;5017406;28;20072;-58
2022/06/01 08:41:09;;;;;;;2.42;0.95;;;14.30;98.20;;;;;;5013470;28;20511;-58
2022/06/01 08:43:53;;;;;;;2.85;1.10;;;14.60;96.90;;;;;;5019963;28;20022;-57
2022/06/01 08:46:21;;;;;;;3.63;1.02;;;14.90;94.40;;;;;;5009799;28;20493;-58
2022/06/01 08:48:51;;;;;;;1.83;1.05;;;15.30;94.70;;;;;;5010791;28;20026;-57
2022/06/01 08:51:21;;;;;;;3.90;0.90;;;15.90;93.50;;;;;;5008449;28;20025;-58
2022/06/01 08:53:46;;;;;;;4.15;1.00;;;15.90;91.20;;;;;;5021811;28;20080;-57
2022/06/01 08:56:18;;;;;;;3.15;1.10;;;16.00;91.50;;;;;;5006269;28;20034;-57
2022/06/01 08:59:13;;;;;;;3.13;0.70;;;15.90;91.40;;;;;;5018280;28;20022;-57
2022/06/01 09:01:38;;;;;;;6.22;1.08;;;15.70;90.70;;;;;;5006059;28;20091;-57
2022/06/01 09:04:13;;;;;;;3.67;0.93;;;15.30;92.30;;;;;;5015619;28;20021;-57
2022/06/01 09:06:45;;;;;;;2.75;0.75;;;15.40;91.00;;;;;;5010575;28;20179;-58
2022/06/01 09:09:26;;;;;;;5.18;1.27;;;15.50;90.20;;;;;;5022518;28;20022;-57
2022/06/01 09:11:52;;;;;;;1.77;0.70;;;15.60;90.00;;;;;;5011693;28;20373;-58
2022/06/01 09:14:27;;;;;;;1.73;0.70;;;15.80;90.40;;;;;;5008176;28;20033;-56
2022/06/01 09:16:59;;;;;;;1.48;0.70;;;16.10;89.50;;;;;;5008670;28;20129;-57
2022/06/01 09:19:29;;;;;;;;;;;16.30;90.70;;;;;;5018886;28;20029;-58
2022/06/01 09:24:47;;;;;;;3.00;0.70;;;16.10;91.70;;;;;;5008946;28;20072;-58
2022/06/01 09:27:14;;;;;;;1.55;1.00;;;16.40;92.20;;;;;;5018746;28;20032;-58
2022/06/01 09:29:46;;;;;;;2.30;0.88;;;16.30;90.80;;;;;;5019747;28;20079;-58
2022/06/01 09:32:33;;;;;;;3.47;1.10;;;16.30;91.30;;;;;;5005962;28;20046;-58
2022/06/01 09:35:09;;;;;;;3.63;1.23;;;16.20;90.90;;;;;;5013828;28;20029;-58
2022/06/01 09:37:40;;;;;;;3.80;1.20;;;16.40;90.90;;;;;;5005478;28;20121;-58
2022/06/01 09:40:20;;;;;;;1.33;0.52;;;16.50;90.30;;;;;;5012333;28;20019;-59
2022/06/01 09:42:52;;;;;;;2.20;0.93;;;16.60;79.80;;;;;;5017798;28;20029;-58
2022/06/01 09:45:37;;;;;;;2.15;1.08;;;16.70;79.00;;;;;;5006943;28;20037;-59
2022/06/01 09:48:27;;;;;;;3.00;1.35;;;17.20;81.00;;;;;;5012228;28;20128;-58
2022/06/01 09:51:07;;;;;;;3.47;1.23;;;17.20;80.40;;;;;;5015501;28;20694;-58
2022/06/01 09:53:52;;;;;;;3.67;1.13;;;17.40;82.10;;;;;;5007445;28;20030;-58
2022/06/01 09:56:40;;;;;;;3.85;1.05;;;17.40;83.30;;;;;;5007805;28;20267;-59
2022/06/01 10:07:29;;;;;;;1.48;0.38;;;16.90;75.40;;;;;;5009183;28;20041;-58
2022/06/01 10:09:58;;;;;;;0.80;0.60;;;17.10;71.10;;;;;;5009267;28;20153;-59
2022/06/01 10:12:32;;;;;;;3.28;0.50;;;17.10;77.50;;;;;;5008880;28;20087;-58
2022/06/01 10:14:58;;;;;;;3.65;0.85;;;17.20;75.70;;;;;;5015040;28;20030;-58
2022/06/01 10:17:35;;;;;;;2.15;0.80;;;17.10;77.50;;;;;;5013655;28;20033;-58
2022/06/01 10:20:08;;;;;;;3.33;0.93;;;17.20;78.00;;;;;;5014629;28;20397;-58
2022/06/01 10:22:39;;;;;;;5.05;1.17;;;17.30;77.30;;;;;;5015835;28;20044;-58
2022/06/01 10:25:11;;;;;;;2.70;0.82;;;17.40;78.10;;;;;;5012372;28;20131;-58
2022/06/01 10:27:59;;;;;;;3.58;0.93;;;17.50;78.60;;;;;;5012272;28;20493;-59
2022/06/01 10:30:37;;;;;;;3.55;0.95;;;17.60;78.90;;;;;;5007841;28;20025;-59
2022/06/01 10:33:21;;;;;;;2.45;0.90;;;17.50;78.80;;;;;;5019970;28;20048;-59
2022/06/01 10:35:59;;;;;;;4.05;1.00;;;17.70;78.10;;;;;;5011391;28;20543;-59
2022/06/01 10:38:27;;;;;;;3.20;1.20;;;17.60;79.30;;;;;;5000869;28;20030;-59
2022/06/01 10:41:15;;;;;;;2.30;0.85;;;17.50;82.50;;;;;;5017273;28;20504;-59
2022/06/01 10:44:00;;;;;;;3.25;1.25;;;17.10;82.80;;;;;;5014851;28;20057;-58
2022/06/01 10:46:47;;;;;;;3.42;1.23;;;16.80;85.60;;;;;;5013896;28;20061;-58
2022/06/01 10:49:28;;;;;;;4.05;1.00;;;16.70;85.60;;;;;;5010331;28;20040;-59
2022/06/01 10:52:17;;;;;;;2.88;1.08;;;16.70;86.30;;;;;;5014528;28;20482;-58
2022/06/01 10:55:16;;;;;;;4.97;1.40;;;16.60;86.80;;;;;;5016484;28;20482;-58
2022/06/01 10:57:45;;;;;;;3.28;1.20;;;16.90;86.40;;;;;;5012857;28;20132;-59
2022/06/01 11:00:20;;;;;;;2.55;1.20;;;16.90;85.20;;;;;;5005640;28;20122;-57
2022/06/01 11:03:23;;;;;;;3.53;1.15;;;16.80;83.80;;;;;;5009758;28;20033;-59
2022/06/01 11:06:21;;;;;;;4.70;1.42;;;17.00;83.20;;;;;;5021326;28;20042;-58
2022/06/01 11:08:54;;;;;;;5.35;1.35;;;17.60;82.00;;;;;;5002063;28;20120;-56
2022/06/01 11:11:47;;;;;;;3.00;1.50;;;18.00;78.20;;;;;;5014318;28;20087;-58
2022/06/01 11:14:13;;;;;;;1.90;1.50;;;18.70;76.00;;;;;;5013054;28;20033;-58
2022/06/01 11:16:52;;;;;;;3.15;1.38;;;19.20;72.20;;;;;;5009465;28;20046;-58
2022/06/01 11:19:49;;;;;;;2.88;1.40;;;19.40;70.00;;;;;;5009922;28;20038;-59
2022/06/01 11:22:33;;;;;;;1.00;0.90;;;19.40;69.40;;;;;;5017306;28;20044;-58
2022/06/01 11:25:28;;;;;;;3.60;1.00;;;19.00;68.70;;;;;;5016273;28;20030;-59
2022/06/01 11:28:18;;;;;;;2.50;0.70;;;18.70;70.10;;;;;;5010408;28;20033;-58
2022/06/01 11:30:47;;;;;;;2.53;1.13;;;18.30;71.40;;;;;;5015635;28;20060;-59
2022/06/01 11:33:37;;;;;;;1.58;0.82;;;18.40;73.70;;;;;;5000555;28;20161;-58
2022/06/01 11:36:06;;;;;;;3.92;1.17;;;18.70;71.80;;;;;;5017778;28;20038;-58
2022/06/01 11:38:40;;;;;;;4.95;1.05;;;19.60;69.00;;;;;;5011732;28;20042;-58
2022/06/01 11:41:17;;;;;;;2.03;0.95;;;19.60;67.00;;;;;;5025043;28;20486;-58
2022/06/01 11:43:52;;;;;;;2.45;0.80;;;18.30;71.50;;;;;;5010608;28;20025;-58
2022/06/01 11:46:33;;;;;;;1.27;0.80;;;17.80;75.40;;;;;;5012860;28;20450;-57
2022/06/01 11:49:03;;;;;;;2.92;1.05;;;17.10;78.90;;;;;;5009778;28;20057;-58
2022/06/01 11:51:38;;;;;;;3.75;0.90;;;17.10;80.10;;;;;;5012355;28;20072;-57
2022/06/01 11:54:14;;;;;;;2.20;0.80;;;18.00;76.90;;;;;;5011299;28;20033;-58
2022/06/01 11:56:59;;;;;;;3.83;1.30;;;18.60;72.10;;;;;;5006758;28;20046;-58
2022/06/01 11:59:28;;;;;;;1.60;0.90;;;19.10;69.70;;;;;;5002628;28;20021;-58
2022/06/01 12:01:58;;;;;;;3.50;1.00;;;18.80;69.20;;;;;;4999894;28;20141;-58
2022/06/01 12:04:30;;;;;;;2.55;1.30;;;18.20;69.30;;;;;;5005891;28;20104;-59
2022/06/01 12:07:21;;;;;;;2.45;1.25;;;17.70;73.10;;;;;;5009956;28;20453;-58
2022/06/01 12:09:50;;;;;;;3.50;1.02;;;18.40;72.10;;;;;;5008772;28;20030;-58
2022/06/01 12:12:34;;;;;;;3.33;0.90;;;19.20;67.20;;;;;;5016916;28;20035;-57
2022/06/01 12:15:45;;;;;;;2.15;0.98;;;19.70;66.30;;;;;;5008420;28;20116;-57
2022/06/01 12:18:16;;;;;;;3.15;0.75;;;19.90;64.00;;;;;;5001419;28;20081;-57
2022/06/01 12:20:46;;;;;;;2.08;1.55;;;20.70;61.60;;;;;;5011526;28;20030;-58
2022/06/01 12:28:45;;;;;;;1.90;0.80;;;21.10;59.50;;;;;;5010692;28;20087;-58
2022/06/01 12:31:22;;;;;;;3.40;2.20;;;21.10;59.10;;;;;;5009612;28;20382;-58
2022/06/01 12:34:06;;;;;;;2.65;1.00;;;21.00;59.60;;;;;;5017824;28;20128;-58
2022/06/01 12:36:43;;;;;;;3.75;0.90;;;21.30;58.10;;;;;;5013941;28;20383;-58
2022/06/01 12:39:21;;;;;;;2.38;0.90;;;21.70;58.30;;;;;;5011856;28;20053;-57
2022/06/01 12:41:53;;;;;;;2.55;0.90;;;22.20;55.40;;;;;;5010451;28;20505;-58
2022/06/01 12:44:19;;;;;;;;;;;22.50;54.20;;;;;;5002831;28;20025;-58
2022/06/01 12:46:57;;;;;;;2.55;1.00;;;22.50;53.30;;;;;;5008788;28;19913;-58
2022/06/01 12:49:45;;;;;;;2.97;1.00;;;22.40;53.00;;;;;;5005744;28;20030;-58
2022/06/01 12:52:21;;;;;;;4.75;1.10;;;21.20;56.30;;;;;;5006275;28;20378;-58
2022/06/01 12:55:01;;;;;;;2.88;0.98;;;20.40;59.50;;;;;;5006348;28;20025;-58
2022/06/01 12:57:49;;;;;;;3.80;1.25;;;19.70;61.90;;;;;;5007112;28;20038;-58
2022/06/01 13:00:28;;;;;;;4.13;1.00;;;19.40;64.00;;;;;;5007160;28;20478;-58
2022/06/01 13:02:54;;;;;;;4.20;0.88;;;19.00;63.80;;;;;;5009754;28;20026;-59
2022/06/01 13:05:38;;;;;;;8.02;1.92;;;18.70;67.60;;;;;;5005637;28;20030;-57
2022/06/01 13:08:17;;;;;;;2.25;1.40;;;18.60;71.20;;;;;;5004642;28;20099;-57
2022/06/01 13:10:43;;;;;;;5.60;1.45;;;18.40;73.00;;;;;;5002475;28;20070;-58
2022/06/01 13:13:12;;;;;;;2.03;1.35;;;18.50;75.10;;;;;;5004726;28;20111;-59
2022/06/01 13:15:42;;;;;;;5.07;1.63;;;18.50;72.70;;;;;;5007740;28;20034;-57
2022/06/01 13:18:14;;;;;;;3.35;1.63;;;18.30;74.80;;;;;;4998260;28;20091;-57
2022/06/01 13:20:57;;;;;;;3.45;1.52;;;17.90;82.00;;;;;;5010431;28;20672;-57
2022/06/01 13:23:27;;;;;;;5.70;1.83;;;17.60;86.90;;;;;;5005387;28;20117;-58
2022/06/01 13:25:55;;;;;;;4.80;2.10;;;17.30;90.70;;;;;;5001772;28;20364;-59
2022/06/01 13:28:21;;;;;;;4.63;2.00;;;16.90;90.40;;;;;;5005627;28;20030;-58
2022/06/01 13:30:49;;;;;;;4.95;2.00;;;16.60;92.20;;;;;;5006444;28;20025;-57
2022/06/01 13:33:29;;;;;;;10.52;2.70;;;16.30;94.40;;;;;;5000543;28;20023;-57
2022/06/01 13:36:29;;;;;;;3.03;1.85;;;16.30;99.80;;;;;;4996373;28;20053;-58
2022/06/01 13:39:25;;;;;;;5.45;2.28;;;16.00;99.90;;;;;;4994858;28;20034;-63
2022/06/01 13:41:56;;;;;;;25.23;5.07;;;15.30;99.90;;;;;;4998246;28;20022;-61
2022/06/01 13:44:44;;;;;;;4.18;2.67;;;15.20;99.90;;;;;;4999065;28;20029;-60
2022/06/01 13:47:11;;;;;;;11.13;4.18;;;15.00;99.90;;;;;;5006837;28;20044;-59